Time;durP1;ratioP1;P1;durP2;ratioP2;P2;SDS_P1;SDS_P2;PMS_P1;PMS_P2;Temp;Humidity;BMP_temperature;BMP_pressure;BME280_temperature;BME280_humidity;BME280_pressure;Samples;Min_cycle;Max_cycle;Signal;HPM_P1;HPM_P2
2023/06/21 05:00:14;;;;;;;10.73;9.40;;;22.90;97.20;;;;;;1727639;28;20173;-73
2023/06/21 05:01:04;;;;;;;11.48;10.48;;;22.90;97.20;;;;;;1728332;28;20205;-73
2023/06/21 05:01:56;;;;;;;10.93;10.03;;;22.90;97.20;;;;;;1728242;28;20197;-74
2023/06/21 05:02:47;;;;;;;10.93;9.82;;;22.90;97.20;;;;;;1728416;28;20228;-73
2023/06/21 05:03:39;;;;;;;13.80;10.53;;;22.90;97.20;;;;;;1728194;28;20200;-73
2023/06/21 05:04:30;;;;;;;10.73;9.65;;;22.90;97.20;;;;;;1728267;28;20201;-74
2023/06/21 05:05:22;;;;;;;10.93;9.75;;;22.90;97.20;;;;;;1728010;28;20654;-73
2023/06/21 05:06:12;;;;;;;13.88;10.60;;;22.90;97.20;;;;;;1727981;28;20211;-73
2023/06/21 05:07:05;;;;;;;11.30;10.17;;;22.90;97.20;;;;;;1727946;28;20204;-74
2023/06/21 05:07:56;;;;;;;10.10;9.15;;;22.90;97.20;;;;;;1728119;28;20333;-73
2023/06/21 05:08:47;;;;;;;12.93;9.83;;;22.90;97.20;;;;;;1728220;28;20267;-73
2023/06/21 05:09:38;;;;;;;12.35;10.02;;;22.90;97.20;;;;;;1728156;28;20212;-73
2023/06/21 05:10:30;;;;;;;13.40;10.13;;;22.90;97.20;;;;;;1728067;28;20204;-74
2023/06/21 05:11:20;;;;;;;10.77;9.77;;;22.90;97.20;;;;;;1727992;28;20231;-73
2023/06/21 05:12:12;;;;;;;10.03;9.00;;;22.90;97.20;;;;;;1727953;28;20207;-73
2023/06/21 05:13:03;;;;;;;10.88;9.85;;;22.90;97.20;;;;;;1727501;28;20217;-73
2023/06/21 05:13:55;;;;;;;10.43;9.33;;;23.00;97.20;;;;;;1728143;28;20201;-73
2023/06/21 05:14:45;;;;;;;12.68;9.48;;;22.90;97.20;;;;;;1727714;28;20211;-73
2023/06/21 05:15:38;;;;;;;10.00;9.00;;;22.90;97.20;;;;;;1727597;28;20196;-74
2023/06/21 05:16:29;;;;;;;10.70;9.13;;;22.90;97.20;;;;;;1728089;28;20633;-74
2023/06/21 05:17:21;;;;;;;11.30;9.80;;;22.90;97.20;;;;;;1727656;28;20258;-74
2023/06/21 05:18:12;;;;;;;10.45;9.55;;;22.90;97.20;;;;;;1727984;28;20695;-74
2023/06/21 05:19:03;;;;;;;11.30;9.97;;;22.90;97.20;;;;;;1728071;28;20833;-73
2023/06/21 05:19:54;;;;;;;9.95;9.05;;;22.90;97.20;;;;;;1727873;28;20201;-74
2023/06/21 05:20:46;;;;;;;11.17;9.70;;;22.90;97.20;;;;;;1727866;28;20231;-75
2023/06/21 05:21:36;;;;;;;10.60;9.70;;;23.00;97.20;;;;;;1727841;28;20208;-74
2023/06/21 05:22:28;;;;;;;10.93;9.27;;;23.00;97.20;;;;;;1728055;28;20207;-74
2023/06/21 05:23:19;;;;;;;11.70;10.60;;;23.00;97.20;;;;;;1728001;28;20662;-74
2023/06/21 05:24:10;;;;;;;11.10;10.00;;;23.00;97.20;;;;;;1727957;28;20690;-74
2023/06/21 05:25:02;;;;;;;11.95;9.52;;;23.00;97.20;;;;;;1727736;28;20208;-74
2023/06/21 05:25:54;;;;;;;11.32;9.40;;;23.00;97.20;;;;;;1727875;28;20208;-74
2023/06/21 05:26:44;;;;;;;10.88;9.85;;;23.00;97.20;;;;;;1728014;28;20216;-74
2023/06/21 05:27:37;;;;;;;11.07;10.07;;;23.00;97.20;;;;;;1727943;28;20681;-74
2023/06/21 05:28:27;;;;;;;11.55;9.18;;;23.00;97.20;;;;;;1727987;28;20350;-74
2023/06/21 05:29:19;;;;;;;10.23;9.23;;;23.00;97.20;;;;;;1727979;28;20208;-74
2023/06/21 05:30:10;;;;;;;11.05;9.98;;;23.00;97.20;;;;;;1727915;28;20212;-73
2023/06/21 05:31:03;;;;;;;12.80;9.63;;;23.00;97.20;;;;;;1727440;28;21431;-74
2023/06/21 05:31:54;;;;;;;10.90;9.90;;;23.10;97.20;;;;;;1727953;28;20204;-74
2023/06/21 05:32:46;;;;;;;11.00;9.90;;;23.10;97.20;;;;;;1727916;28;20208;-74
2023/06/21 05:33:36;;;;;;;13.65;10.25;;;23.10;97.20;;;;;;1727829;28;20205;-74
2023/06/21 05:34:30;;;;;;;11.57;10.47;;;23.10;97.20;;;;;;1727975;28;20211;-74
2023/06/21 05:35:21;;;;;;;11.60;10.60;;;23.10;97.20;;;;;;1727649;28;20200;-74
2023/06/21 05:36:13;;;;;;;11.90;10.63;;;23.10;97.20;;;;;;1727768;28;20205;-73
2023/06/21 05:37:04;;;;;;;11.63;10.45;;;23.10;97.20;;;;;;1727960;28;20398;-73
2023/06/21 05:37:56;;;;;;;12.23;11.13;;;23.20;97.20;;;;;;1727951;28;20207;-74
2023/06/21 05:38:47;;;;;;;11.90;10.70;;;23.20;97.20;;;;;;1727880;28;20223;-74
2023/06/21 05:39:38;;;;;;;12.63;10.90;;;23.20;97.20;;;;;;1727879;28;20207;-74
2023/06/21 05:40:29;;;;;;;12.15;10.85;;;23.20;97.20;;;;;;1727718;28;20208;-74
2023/06/21 05:41:21;;;;;;;11.17;10.17;;;23.20;97.20;;;;;;1727830;28;20211;-73
2023/06/21 05:43:59;;;;;;;11.80;10.73;;;23.20;97.20;;;;;;1726461;28;20176;-73
2023/06/21 05:44:50;;;;;;;12.60;11.32;;;23.20;97.20;;;;;;1727785;28;20204;-73
2023/06/21 05:48:05;;;;;;;11.10;10.10;;;23.20;97.20;;;;;;1728237;28;20213;-72
2023/06/21 05:48:57;;;;;;;12.25;11.05;;;23.20;97.20;;;;;;1733318;28;20204;-72
2023/06/21 05:49:49;;;;;;;11.48;10.50;;;23.20;97.20;;;;;;1734860;28;20199;-72
2023/06/21 05:50:40;;;;;;;12.05;10.60;;;23.20;97.20;;;;;;1734729;28;20269;-73
2023/06/21 05:51:31;;;;;;;11.80;10.60;;;23.20;97.20;;;;;;1734066;28;20295;-72
2023/06/21 05:52:22;;;;;;;10.98;9.88;;;23.20;97.20;;;;;;1727854;28;20452;-73
2023/06/21 05:53:14;;;;;;;13.10;10.90;;;23.30;97.20;;;;;;1727892;28;20207;-72
2023/06/21 05:54:05;;;;;;;9.65;8.75;;;23.20;97.20;;;;;;1727896;28;20749;-72
2023/06/21 05:54:57;;;;;;;11.73;10.53;;;23.30;97.20;;;;;;1731760;28;20559;-72
2023/06/21 05:55:48;;;;;;;11.48;10.48;;;23.30;97.20;;;;;;1728058;28;20200;-72
2023/06/21 05:56:39;;;;;;;12.43;11.00;;;23.30;97.20;;;;;;1736136;28;20213;-72
2023/06/21 05:57:30;;;;;;;12.27;10.50;;;23.30;97.20;;;;;;1740820;28;20218;-73
2023/06/21 05:58:22;;;;;;;13.13;11.83;;;23.30;97.20;;;;;;1734357;28;20192;-73
2023/06/21 05:59:12;;;;;;;14.75;11.95;;;23.30;97.20;;;;;;1734622;28;20200;-73
2023/06/21 06:00:09;;;;;;;12.40;11.13;;;23.30;97.20;;;;;;1733889;28;20192;-73
2023/06/21 06:01:00;;;;;;;16.13;11.70;;;23.30;97.20;;;;;;1734560;28;20315;-71
2023/06/21 06:01:52;;;;;;;13.10;11.80;;;23.30;97.20;;;;;;1734266;28;20203;-71
2023/06/21 06:02:42;;;;;;;13.00;11.82;;;23.30;97.20;;;;;;1734777;28;20200;-71
2023/06/21 06:03:35;;;;;;;13.03;11.73;;;23.30;97.20;;;;;;1734652;28;20206;-71
2023/06/21 06:04:26;;;;;;;12.88;11.57;;;23.30;97.20;;;;;;1734728;28;20222;-71
2023/06/21 06:05:19;;;;;;;13.85;12.43;;;23.30;97.20;;;;;;1734535;28;20286;-71
2023/06/21 06:06:09;;;;;;;13.93;12.63;;;23.30;97.20;;;;;;1734402;28;20204;-71
2023/06/21 06:07:01;;;;;;;12.67;11.40;;;23.30;97.20;;;;;;1734400;28;20196;-71
2023/06/21 06:07:52;;;;;;;13.98;12.63;;;23.30;97.20;;;;;;1734637;28;20872;-71
2023/06/21 06:08:44;;;;;;;14.97;13.47;;;23.30;97.20;;;;;;1734412;28;20667;-71
2023/06/21 06:09:34;;;;;;;13.23;11.95;;;23.30;97.20;;;;;;1733504;28;20199;-71
2023/06/21 06:10:26;;;;;;;13.17;11.87;;;23.30;97.20;;;;;;1734610;28;20654;-71
2023/06/21 06:11:17;;;;;;;13.30;12.00;;;23.20;97.20;;;;;;1730886;28;20199;-71
2023/06/21 06:12:09;;;;;;;13.50;11.80;;;23.30;97.20;;;;;;1731583;28;20283;-71
2023/06/21 06:13:00;;;;;;;13.27;11.77;;;23.30;97.20;;;;;;1734162;28;20596;-71
2023/06/21 06:13:51;;;;;;;13.27;11.97;;;23.30;97.20;;;;;;1734594;28;20584;-71
2023/06/21 06:14:42;;;;;;;12.90;11.55;;;23.30;97.20;;;;;;1734564;28;20211;-71
2023/06/21 06:15:34;;;;;;;13.93;11.47;;;23.30;97.20;;;;;;1734448;28;20280;-71
2023/06/21 06:16:25;;;;;;;12.02;11.02;;;23.30;97.20;;;;;;1734231;28;20265;-70
2023/06/21 06:17:17;;;;;;;11.27;10.27;;;23.40;97.20;;;;;;1734637;28;20200;-70
2023/06/21 06:18:07;;;;;;;12.57;11.02;;;23.40;97.20;;;;;;1734562;28;20337;-70
2023/06/21 06:19:00;;;;;;;12.40;11.20;;;23.40;97.20;;;;;;1734027;28;20204;-70
2023/06/21 06:19:51;;;;;;;12.20;10.88;;;23.50;97.20;;;;;;1734376;28;20553;-70
2023/06/21 06:20:43;;;;;;;11.93;10.73;;;23.50;97.20;;;;;;1734243;28;20594;-71
2023/06/21 06:21:36;;;;;;;12.20;10.80;;;23.50;97.20;;;;;;1734565;28;20290;-71
2023/06/21 06:22:28;;;;;;;11.82;10.50;;;23.50;97.20;;;;;;1734454;28;20227;-70
2023/06/21 06:23:19;;;;;;;12.20;10.90;;;23.60;97.20;;;;;;1734410;28;20223;-70
2023/06/21 06:24:10;;;;;;;11.50;9.93;;;23.60;97.20;;;;;;1734529;28;20200;-70
2023/06/21 06:25:01;;;;;;;12.23;11.13;;;23.70;97.20;;;;;;1734440;28;20223;-71
2023/06/21 06:25:53;;;;;;;11.90;10.80;;;23.70;97.20;;;;;;1734491;28;20202;-71
2023/06/21 06:26:44;;;;;;;13.40;12.10;;;23.80;97.20;;;;;;1734091;28;20222;-71
2023/06/21 06:27:36;;;;;;;12.55;11.35;;;23.80;97.20;;;;;;1734410;28;20680;-71
2023/06/21 06:28:26;;;;;;;12.18;10.95;;;23.80;97.20;;;;;;1735364;28;20200;-71
2023/06/21 06:29:18;;;;;;;11.00;10.10;;;23.90;97.20;;;;;;1734052;28;20196;-71
2023/06/21 06:30:16;;;;;;;11.98;10.20;;;23.90;97.20;;;;;;1734192;28;20214;-70
2023/06/21 06:31:08;;;;;;;11.32;10.23;;;24.00;97.20;;;;;;1734386;28;20192;-71
2023/06/21 06:31:59;;;;;;;11.27;10.05;;;24.00;97.20;;;;;;1734355;28;20211;-71
2023/06/21 06:32:51;;;;;;;10.80;9.57;;;24.00;97.20;;;;;;1734387;28;20294;-71
2023/06/21 06:33:42;;;;;;;11.88;10.63;;;24.00;97.20;;;;;;1734282;28;20207;-71
2023/06/21 06:34:35;;;;;;;11.70;10.50;;;24.00;97.20;;;;;;1734424;28;20235;-71
2023/06/21 06:35:27;;;;;;;10.88;9.32;;;24.00;97.20;;;;;;1734329;28;20204;-71
2023/06/21 06:36:19;;;;;;;9.18;8.38;;;24.00;97.20;;;;;;1733914;28;20261;-70
2023/06/21 06:37:11;;;;;;;10.15;9.15;;;24.00;97.20;;;;;;1734196;28;20202;-71
2023/06/21 06:38:03;;;;;;;9.27;8.05;;;24.00;97.20;;;;;;1733864;28;20280;-71
2023/06/21 06:38:54;;;;;;;7.00;6.30;;;24.10;97.20;;;;;;1733665;28;20196;-70
2023/06/21 06:39:45;;;;;;;7.13;6.53;;;24.10;97.20;;;;;;1734370;28;20279;-71
2023/06/21 06:40:36;;;;;;;8.98;6.90;;;24.10;97.20;;;;;;1734475;28;20204;-72
2023/06/21 06:41:28;;;;;;;10.17;7.40;;;24.10;97.20;;;;;;1734162;28;20223;-71
2023/06/21 06:44:06;;;;;;;6.95;6.30;;;24.20;97.20;;;;;;1734143;28;20233;-71
2023/06/21 06:44:57;;;;;;;7.93;7.18;;;24.20;97.20;;;;;;1734041;28;20658;-70
2023/06/21 06:45:49;;;;;;;9.13;7.07;;;24.30;97.20;;;;;;1733883;28;20665;-71
2023/06/21 06:46:39;;;;;;;6.95;6.35;;;24.30;97.20;;;;;;1734272;28;20605;-71
2023/06/21 06:47:31;;;;;;;7.30;6.70;;;24.30;97.20;;;;;;1734375;28;20950;-71
2023/06/21 06:48:24;;;;;;;7.18;6.28;;;24.40;97.20;;;;;;1734414;28;20666;-71
2023/06/21 06:49:15;;;;;;;7.43;6.72;;;24.40;97.20;;;;;;1732806;28;20218;-71
2023/06/21 06:50:09;;;;;;;10.53;7.13;;;24.40;97.20;;;;;;1734134;28;20192;-72
2023/06/21 06:50:59;;;;;;;8.00;7.25;;;24.50;97.20;;;;;;1734089;28;20689;-71
2023/06/21 06:51:51;;;;;;;8.47;7.57;;;24.50;97.20;;;;;;1734533;28;20631;-71
2023/06/21 06:52:44;;;;;;;7.95;7.07;;;24.50;97.20;;;;;;1733897;28;20200;-71
2023/06/21 06:53:34;;;;;;;9.55;7.25;;;24.50;97.20;;;;;;1733821;28;20230;-71
2023/06/21 06:54:26;;;;;;;8.27;7.33;;;24.50;97.20;;;;;;1733781;28;20290;-71
2023/06/21 06:55:17;;;;;;;8.38;7.57;;;24.50;97.20;;;;;;1734023;28;20211;-71
2023/06/21 06:56:08;;;;;;;8.03;7.30;;;24.60;97.20;;;;;;1733938;28;20206;-71
2023/06/21 06:56:59;;;;;;;8.38;7.57;;;24.60;97.20;;;;;;1734273;28;20203;-71
2023/06/21 06:57:51;;;;;;;8.60;7.80;;;24.60;97.20;;;;;;1734607;28;20195;-71
2023/06/21 06:58:42;;;;;;;8.27;7.57;;;24.60;97.20;;;;;;1734499;28;20235;-71
2023/06/21 06:59:33;;;;;;;8.57;7.50;;;24.60;97.20;;;;;;1734260;28;20203;-71
2023/06/21 07:00:25;;;;;;;9.57;7.32;;;24.70;97.20;;;;;;1734491;28;20204;-70
2023/06/21 07:01:16;;;;;;;10.35;7.65;;;24.70;97.20;;;;;;1734450;28;20200;-71
2023/06/21 07:02:07;;;;;;;8.18;7.47;;;24.80;97.20;;;;;;1734575;28;20662;-71
2023/06/21 07:02:59;;;;;;;8.33;7.53;;;24.80;97.20;;;;;;1734198;28;20575;-71
2023/06/21 07:03:49;;;;;;;8.63;7.93;;;24.90;97.20;;;;;;1734506;28;20561;-71
2023/06/21 07:04:41;;;;;;;9.87;7.20;;;25.00;97.20;;;;;;1734420;28;20563;-71
2023/06/21 07:05:35;;;;;;;8.40;7.13;;;25.00;97.20;;;;;;1734521;28;20211;-71
2023/06/21 07:06:27;;;;;;;8.30;7.50;;;25.10;97.20;;;;;;1734407;28;20231;-71
2023/06/21 07:07:18;;;;;;;8.60;7.90;;;25.20;97.20;;;;;;1734411;28;20226;-71
2023/06/21 07:08:10;;;;;;;10.53;8.20;;;25.20;97.20;;;;;;1734536;28;20282;-70
2023/06/21 07:09:02;;;;;;;9.65;8.70;;;25.30;97.20;;;;;;1734451;28;20672;-70
2023/06/21 07:09:54;;;;;;;10.73;8.10;;;25.30;97.20;;;;;;1734326;28;20219;-71
2023/06/21 07:10:45;;;;;;;8.27;7.57;;;25.40;97.20;;;;;;1734338;28;20238;-71
2023/06/21 07:11:36;;;;;;;8.93;8.20;;;25.40;97.20;;;;;;1733765;28;20196;-74
2023/06/21 07:12:27;;;;;;;9.27;7.88;;;25.50;97.20;;;;;;1734241;28;20442;-73
2023/06/21 07:13:21;;;;;;;8.40;7.60;;;25.50;97.20;;;;;;1734101;28;20204;-71
2023/06/21 07:14:11;;;;;;;8.85;8.07;;;25.60;97.20;;;;;;1734304;28;20620;-71
2023/06/21 07:15:04;;;;;;;9.20;8.17;;;25.60;97.20;;;;;;1734365;28;20635;-71
2023/06/21 07:15:54;;;;;;;9.68;8.40;;;25.60;97.20;;;;;;1734389;28;20211;-71
2023/06/21 07:16:50;;;;;;;8.20;7.40;;;25.70;97.20;;;;;;1734284;28;20220;-71
2023/06/21 07:17:41;;;;;;;10.33;7.77;;;25.70;97.20;;;;;;1734448;28;20238;-71
2023/06/21 07:18:33;;;;;;;9.03;7.90;;;25.80;97.20;;;;;;1734341;28;20443;-71
2023/06/21 07:19:24;;;;;;;8.57;7.77;;;25.80;97.20;;;;;;1734115;28;20290;-71
2023/06/21 07:20:15;;;;;;;8.93;7.93;;;25.90;97.20;;;;;;1734363;28;20461;-71
2023/06/21 07:21:08;;;;;;;8.88;7.97;;;25.90;97.20;;;;;;1734418;28;20662;-71
2023/06/21 07:22:00;;;;;;;10.68;7.80;;;26.00;97.20;;;;;;1734442;28;20211;-71
2023/06/21 07:22:51;;;;;;;9.63;8.63;;;26.00;97.20;;;;;;1734244;28;20206;-71
2023/06/21 07:23:42;;;;;;;9.57;8.47;;;26.10;97.20;;;;;;1734570;28;20196;-73
2023/06/21 07:24:33;;;;;;;10.32;9.32;;;26.20;97.20;;;;;;1734378;28;20817;-71
2023/06/21 07:25:25;;;;;;;10.30;9.30;;;26.30;97.20;;;;;;1734480;28;20195;-73
2023/06/21 07:26:16;;;;;;;9.40;7.40;;;26.30;97.20;;;;;;1734273;28;20227;-73
2023/06/21 07:27:07;;;;;;;9.83;8.20;;;26.40;97.20;;;;;;1734502;28;20951;-73
2023/06/21 07:27:59;;;;;;;8.63;7.83;;;26.50;97.20;;;;;;1734390;28;20803;-73
2023/06/21 07:28:49;;;;;;;10.95;8.63;;;26.50;97.20;;;;;;1734441;28;20199;-73
2023/06/21 07:29:41;;;;;;;9.37;8.47;;;26.60;97.20;;;;;;1734112;28;20198;-73
2023/06/21 07:30:33;;;;;;;8.67;7.83;;;26.60;97.20;;;;;;1734375;28;20207;-73
2023/06/21 07:31:24;;;;;;;8.98;8.20;;;26.70;97.20;;;;;;1734354;28;20856;-73
2023/06/21 07:32:15;;;;;;;11.77;8.63;;;26.70;97.20;;;;;;1734376;28;20199;-73
2023/06/21 07:33:08;;;;;;;13.20;8.73;;;26.70;97.20;;;;;;1734139;28;20206;-73
2023/06/21 07:34:00;;;;;;;8.50;7.80;;;26.70;97.20;;;;;;1734278;28;20203;-73
2023/06/21 07:34:53;;;;;;;9.73;8.70;;;26.70;97.20;;;;;;1734370;28;20287;-70
2023/06/21 07:35:44;;;;;;;9.35;8.55;;;26.70;97.20;;;;;;1734110;28;20650;-71
2023/06/21 07:36:37;;;;;;;10.70;8.50;;;26.70;97.20;;;;;;1734240;28;20592;-71
2023/06/21 07:37:28;;;;;;;9.27;8.10;;;26.80;97.20;;;;;;1734322;28;20446;-71
2023/06/21 07:38:19;;;;;;;9.63;8.77;;;26.70;97.20;;;;;;1734253;28;20447;-71
2023/06/21 07:39:10;;;;;;;9.20;8.40;;;26.80;97.20;;;;;;1734309;28;20971;-71
2023/06/21 07:40:03;;;;;;;8.77;7.87;;;26.80;97.20;;;;;;1734309;28;20760;-71
2023/06/21 07:40:53;;;;;;;9.20;8.40;;;26.80;97.20;;;;;;1734184;28;20215;-71
2023/06/21 07:41:45;;;;;;;9.70;8.70;;;26.80;97.20;;;;;;1734189;28;20478;-71
2023/06/21 07:42:36;;;;;;;8.57;7.72;;;26.80;97.20;;;;;;1734317;28;20250;-71
2023/06/21 07:43:27;;;;;;;9.63;8.53;;;26.80;97.20;;;;;;1733919;28;20215;-71
2023/06/21 07:44:18;;;;;;;9.30;8.50;;;26.80;97.20;;;;;;1734087;28;20211;-71
2023/06/21 07:45:10;;;;;;;9.30;8.40;;;26.90;97.20;;;;;;1733541;28;20199;-71
2023/06/21 07:46:01;;;;;;;9.07;8.10;;;26.90;97.20;;;;;;1733879;28;20203;-71
2023/06/21 07:46:52;;;;;;;8.80;8.00;;;26.90;97.20;;;;;;1734129;28;20462;-71
2023/06/21 07:47:44;;;;;;;8.77;8.07;;;26.90;97.20;;;;;;1734174;28;20210;-71
2023/06/21 07:48:35;;;;;;;9.67;8.57;;;26.90;97.20;;;;;;1734150;28;20453;-71
2023/06/21 07:49:26;;;;;;;9.40;7.77;;;26.90;97.20;;;;;;1734127;28;20454;-71
2023/06/21 07:50:17;;;;;;;10.43;9.30;;;26.80;97.20;;;;;;1734199;28;20227;-71
2023/06/21 07:51:09;;;;;;;10.00;9.00;;;26.80;97.20;;;;;;1734234;28;20448;-71
2023/06/21 07:52:02;;;;;;;12.93;9.40;;;26.70;97.20;;;;;;1734174;28;20669;-71
2023/06/21 07:52:53;;;;;;;12.10;9.77;;;26.70;97.20;;;;;;1733892;28;20450;-71
2023/06/21 07:53:44;;;;;;;9.77;8.77;;;26.70;97.20;;;;;;1734236;28;20446;-71
2023/06/21 07:54:36;;;;;;;11.33;10.20;;;26.60;97.20;;;;;;1734149;28;20453;-71
2023/06/21 07:55:27;;;;;;;11.88;10.32;;;26.60;97.20;;;;;;1734163;28;20580;-71
2023/06/21 07:56:18;;;;;;;11.30;9.90;;;26.50;97.20;;;;;;1733642;28;20588;-71
2023/06/21 07:57:09;;;;;;;10.73;9.88;;;26.50;97.20;;;;;;1734258;28;20824;-71
2023/06/21 07:58:01;;;;;;;10.20;9.23;;;26.50;97.20;;;;;;1734190;28;20297;-71
2023/06/21 07:58:52;;;;;;;11.30;10.30;;;26.50;97.20;;;;;;1734184;28;20208;-71
2023/06/21 07:59:44;;;;;;;11.27;10.37;;;26.40;97.20;;;;;;1734273;28;20446;-70
2023/06/21 08:00:34;;;;;;;10.60;9.60;;;26.40;97.20;;;;;;1734296;28;20583;-71
2023/06/21 08:01:26;;;;;;;10.17;9.30;;;26.40;97.20;;;;;;1734142;28;20793;-71
2023/06/21 08:02:18;;;;;;;12.27;11.10;;;26.40;97.20;;;;;;1734203;28;20210;-71
2023/06/21 08:03:09;;;;;;;10.63;9.77;;;26.30;97.20;;;;;;1733981;28;20200;-71
2023/06/21 08:04:00;;;;;;;10.30;9.40;;;26.30;97.20;;;;;;1734093;28;20227;-70
2023/06/21 08:04:52;;;;;;;12.00;9.77;;;26.30;97.20;;;;;;1734203;28;20450;-71
2023/06/21 08:05:43;;;;;;;11.27;9.90;;;26.30;97.20;;;;;;1733907;28;20447;-71
2023/06/21 08:06:35;;;;;;;10.80;9.90;;;26.30;97.20;;;;;;1734009;28;20454;-71
2023/06/21 08:07:27;;;;;;;10.18;9.25;;;26.20;97.20;;;;;;1734226;28;20628;-71
2023/06/21 08:08:20;;;;;;;10.50;9.40;;;26.20;97.20;;;;;;1734163;28;20212;-71
2023/06/21 08:09:10;;;;;;;10.32;9.27;;;26.20;97.20;;;;;;1734174;28;20450;-70
2023/06/21 08:10:02;;;;;;;10.87;9.87;;;26.10;97.20;;;;;;1734181;28;20276;-71
2023/06/21 08:10:55;;;;;;;11.83;9.97;;;26.10;97.20;;;;;;1734145;28;20211;-71
2023/06/21 08:11:47;;;;;;;11.98;10.75;;;26.10;97.20;;;;;;1734244;28;20474;-71
2023/06/21 08:12:38;;;;;;;12.88;10.63;;;26.00;97.20;;;;;;1734118;28;20204;-71
2023/06/21 08:13:30;;;;;;;10.90;10.00;;;26.00;97.20;;;;;;1733962;28;20204;-71
2023/06/21 08:14:21;;;;;;;11.83;10.63;;;26.00;97.20;;;;;;1734092;28;20814;-71
2023/06/21 08:15:12;;;;;;;11.33;10.23;;;26.00;97.20;;;;;;1734126;28;20865;-71
2023/06/21 08:16:03;;;;;;;12.40;11.20;;;25.90;97.20;;;;;;1733789;28;20222;-72
2023/06/21 08:16:55;;;;;;;12.10;10.30;;;25.90;97.20;;;;;;1734034;28;20462;-72
2023/06/21 08:17:46;;;;;;;11.10;10.20;;;25.90;97.20;;;;;;1734583;28;20203;-71
2023/06/21 08:18:37;;;;;;;10.80;9.80;;;25.80;97.20;;;;;;1734195;28;20442;-71
2023/06/21 08:19:28;;;;;;;10.97;9.97;;;25.80;97.20;;;;;;1734127;28;20212;-71
2023/06/21 08:20:20;;;;;;;11.50;10.37;;;25.80;97.20;;;;;;1734118;28;20530;-72
2023/06/21 08:21:11;;;;;;;10.20;9.30;;;25.70;97.20;;;;;;1734158;28;20449;-71
2023/06/21 08:22:02;;;;;;;10.60;9.70;;;25.70;97.20;;;;;;1734013;28;20234;-71
2023/06/21 08:22:55;;;;;;;13.30;10.13;;;25.60;97.20;;;;;;1733871;28;20203;-72
2023/06/21 08:23:46;;;;;;;10.23;9.20;;;25.60;97.20;;;;;;1735538;28;20940;-72
2023/06/21 08:24:38;;;;;;;9.60;8.80;;;25.50;97.20;;;;;;1735400;28;20817;-71
2023/06/21 08:25:29;;;;;;;10.83;9.83;;;25.50;97.20;;;;;;1735553;28;20633;-70
2023/06/21 08:26:20;;;;;;;11.40;9.27;;;25.50;97.20;;;;;;1734988;28;20809;-71
2023/06/21 08:27:11;;;;;;;11.00;10.00;;;25.40;97.20;;;;;;1735455;28;20207;-71
2023/06/21 08:28:03;;;;;;;11.50;10.37;;;25.40;97.20;;;;;;1735480;28;20449;-71
2023/06/21 08:28:54;;;;;;;9.88;8.98;;;25.30;97.20;;;;;;1735530;28;20716;-71
2023/06/21 08:29:47;;;;;;;10.90;9.83;;;25.30;97.20;;;;;;1735555;28;20664;-71
2023/06/21 08:30:37;;;;;;;10.00;9.20;;;25.20;97.20;;;;;;1735470;28;20211;-72
2023/06/21 08:31:29;;;;;;;11.43;10.33;;;25.20;97.20;;;;;;1735543;28;20785;-71
2023/06/21 08:32:20;;;;;;;11.10;10.00;;;25.10;97.20;;;;;;1735481;28;20948;-71
2023/06/21 08:33:12;;;;;;;11.77;10.50;;;25.10;97.20;;;;;;1735186;28;20932;-71
2023/06/21 08:34:02;;;;;;;10.30;9.40;;;25.10;97.20;;;;;;1735424;28;20222;-71
2023/06/21 08:34:54;;;;;;;9.90;8.57;;;25.00;97.20;;;;;;1735456;28;20442;-71
2023/06/21 08:35:45;;;;;;;9.45;8.70;;;25.00;97.20;;;;;;1735437;28;20203;-71
2023/06/21 08:36:38;;;;;;;15.03;8.77;;;25.00;97.20;;;;;;1734898;28;20681;-72
2023/06/21 08:37:29;;;;;;;10.30;9.23;;;25.00;97.20;;;;;;1735469;28;20207;-71
2023/06/21 08:38:22;;;;;;;9.40;8.50;;;24.90;97.20;;;;;;1735453;28;20208;-71
2023/06/21 08:39:13;;;;;;;9.75;8.85;;;24.90;97.20;;;;;;1735420;28;20212;-71
2023/06/21 08:40:06;;;;;;;11.13;8.93;;;24.90;97.20;;;;;;1735438;28;20199;-72
2023/06/21 08:40:59;;;;;;;10.82;9.73;;;24.80;97.20;;;;;;1735370;28;20196;-71
2023/06/21 08:41:51;;;;;;;10.65;9.60;;;24.80;97.20;;;;;;1735408;28;20278;-72
2023/06/21 08:42:42;;;;;;;10.55;9.52;;;24.80;97.20;;;;;;1735061;28;20662;-71
2023/06/21 08:43:33;;;;;;;10.90;9.70;;;24.80;97.20;;;;;;1735406;28;20658;-71
2023/06/21 08:44:24;;;;;;;10.20;9.27;;;24.80;97.20;;;;;;1735260;28;20211;-71
2023/06/21 08:45:16;;;;;;;10.53;9.17;;;24.80;97.20;;;;;;1734680;28;20195;-72
2023/06/21 08:46:08;;;;;;;9.60;8.77;;;24.70;97.20;;;;;;1734981;28;20246;-71
2023/06/21 08:47:03;;;;;;;10.18;9.02;;;24.70;97.20;;;;;;1735450;28;20200;-71
2023/06/21 08:47:58;;;;;;;10.93;9.80;;;24.70;97.20;;;;;;1735367;28;20204;-71
2023/06/21 08:48:52;;;;;;;18.30;9.85;;;24.60;97.20;;;;;;1735284;28;20228;-72
2023/06/21 08:49:46;;;;;;;10.65;9.55;;;24.60;97.20;;;;;;1735474;28;20215;-71
2023/06/21 08:50:41;;;;;;;10.88;9.75;;;24.50;97.20;;;;;;1735334;28;20235;-71
2023/06/21 08:51:34;;;;;;;11.52;10.38;;;24.50;97.20;;;;;;1735398;28;20767;-71
2023/06/21 08:52:27;;;;;;;11.05;9.60;;;24.40;97.20;;;;;;1735256;28;20219;-71
2023/06/21 08:53:27;;;;;;;10.15;9.25;;;24.40;97.20;;;;;;1735056;28;20232;-72
2023/06/21 08:54:28;;;;;;;8.93;8.20;;;24.30;97.20;;;;;;1735253;28;20204;-71
2023/06/21 08:55:23;;;;;;;10.50;9.40;;;24.20;97.20;;;;;;1735360;28;20781;-72
2023/06/21 08:56:19;;;;;;;12.32;9.50;;;24.20;97.20;;;;;;1734931;28;20291;-71
2023/06/21 08:57:17;;;;;;;12.65;9.50;;;24.10;97.20;;;;;;1735399;28;20609;-71
2023/06/21 08:58:16;;;;;;;11.02;10.05;;;24.10;97.20;;;;;;1735352;28;20204;-71
2023/06/21 08:59:09;;;;;;;10.23;9.20;;;24.00;97.20;;;;;;1735379;28;20204;-71
2023/06/21 09:00:03;;;;;;;10.43;9.52;;;23.90;97.20;;;;;;1735268;28;20188;-71
2023/06/21 09:00:59;;;;;;;12.10;10.75;;;23.80;97.20;;;;;;1735265;28;20295;-71
2023/06/21 09:01:57;;;;;;;9.95;8.95;;;23.80;97.20;;;;;;1735283;28;20684;-72
2023/06/21 09:02:56;;;;;;;13.75;9.05;;;23.70;97.20;;;;;;1735078;28;20200;-71
2023/06/21 09:03:56;;;;;;;10.93;9.82;;;23.70;97.20;;;;;;1735356;28;20192;-71
2023/06/21 09:04:52;;;;;;;10.38;9.55;;;23.70;97.20;;;;;;1735312;28;20211;-71
2023/06/21 09:05:53;;;;;;;13.52;9.18;;;23.60;97.20;;;;;;1735296;28;20254;-71
2023/06/21 09:06:44;;;;;;;11.10;9.93;;;23.60;97.20;;;;;;1734782;28;20211;-71
2023/06/21 09:07:37;;;;;;;10.23;9.23;;;23.60;97.20;;;;;;1735279;28;20196;-71
2023/06/21 09:08:30;;;;;;;13.82;10.25;;;23.60;97.20;;;;;;1735324;28;20816;-71
2023/06/21 09:09:24;;;;;;;10.88;9.43;;;23.60;97.20;;;;;;1735175;28;20204;-71
2023/06/21 09:10:15;;;;;;;12.57;11.38;;;23.50;97.20;;;;;;1735241;28;20226;-70
2023/06/21 09:11:08;;;;;;;12.95;11.20;;;23.50;97.20;;;;;;1735236;28;20275;-71
2023/06/21 09:11:59;;;;;;;14.93;10.27;;;23.60;97.20;;;;;;1735227;28;20684;-72
2023/06/21 09:12:52;;;;;;;11.70;10.60;;;23.60;97.20;;;;;;1735056;28;20826;-71
2023/06/21 09:13:44;;;;;;;11.70;9.95;;;23.60;97.20;;;;;;1735231;28;20203;-71
2023/06/21 09:14:36;;;;;;;10.95;9.70;;;23.60;97.20;;;;;;1735148;28;20624;-71
2023/06/21 09:15:29;;;;;;;11.73;10.73;;;23.60;97.20;;;;;;1735223;28;20204;-71
2023/06/21 09:16:21;;;;;;;10.57;9.55;;;23.60;97.20;;;;;;1734772;28;20570;-71
2023/06/21 09:17:12;;;;;;;12.00;10.80;;;23.60;97.20;;;;;;1735012;28;20625;-71
2023/06/21 09:18:04;;;;;;;12.15;10.55;;;23.60;97.20;;;;;;1734944;28;20196;-71
2023/06/21 09:18:56;;;;;;;11.90;10.23;;;23.60;97.20;;;;;;1735230;28;20203;-71
2023/06/21 09:19:48;;;;;;;11.45;10.40;;;23.60;97.20;;;;;;1735119;28;20191;-71
2023/06/21 09:20:42;;;;;;;11.80;10.60;;;23.50;97.20;;;;;;1735123;28;20203;-71
2023/06/21 09:21:34;;;;;;;13.18;10.57;;;23.50;97.20;;;;;;1735190;28;20200;-71
2023/06/21 09:22:27;;;;;;;12.15;11.15;;;23.50;97.20;;;;;;1735148;28;20315;-71
2023/06/21 09:23:18;;;;;;;12.68;11.45;;;23.40;97.20;;;;;;1734920;28;20210;-71
2023/06/21 09:24:11;;;;;;;12.07;10.77;;;23.30;97.20;;;;;;1735134;28;20196;-71
2023/06/21 09:25:02;;;;;;;10.13;9.32;;;23.30;97.20;;;;;;1735175;28;20570;-71
2023/06/21 09:25:54;;;;;;;12.45;10.38;;;23.20;97.20;;;;;;1735226;28;20278;-71
2023/06/21 09:26:45;;;;;;;11.50;10.48;;;23.20;97.20;;;;;;1734726;28;20216;-71
2023/06/21 09:27:37;;;;;;;12.40;11.23;;;23.20;97.20;;;;;;1735202;28;20210;-71
2023/06/21 09:28:27;;;;;;;12.30;10.18;;;23.20;97.20;;;;;;1734973;28;20207;-71
2023/06/21 09:29:20;;;;;;;13.93;11.57;;;23.20;97.20;;;;;;1735059;28;20294;-71
2023/06/21 09:30:11;;;;;;;11.05;10.15;;;23.20;97.20;;;;;;1735238;28;20207;-71
2023/06/21 09:31:03;;;;;;;11.95;10.88;;;23.20;97.20;;;;;;1735181;28;20595;-71
2023/06/21 09:31:53;;;;;;;11.82;10.80;;;23.20;97.20;;;;;;1735118;28;20222;-71